This is the latest recevied weather packets stored in our database for station/object KB9PMA-1. If no packets are shown the sender has not sent any weather packets the latest 1 day(s).
| Time | Temp. | Humidity | Pressure | Rain* | Wind** | Luminosity | Snow |
|---|---|---|---|---|---|---|---|
| 1777997576 | 11.67° C | 82% | 1010 hPa | 0.51 mm | 0 m/s | - | - |
| 1777997276 | 11.67° C | 82% | 1010.2 hPa | 0.51 mm | 0.45 m/s, 7° | - | - |
| 1777996976 | 11.11° C | 84% | 1010.3 hPa | 0.76 mm | 0.45 m/s, 0° | - | - |
| 1777996676 | 11.11° C | 83% | 1010.4 hPa | 0.76 mm | 0 m/s | - | - |
| 1777996376 | 11.11° C | 83% | 1010.5 hPa | 1.02 mm | 0 m/s | - | - |
| 1777996076 | 11.11° C | 84% | 1010.7 hPa | 1.52 mm | 0 m/s | - | - |
| 1777995776 | 11.11° C | 82% | 1010.8 hPa | 1.52 mm | 0 m/s | - | - |
| 1777995476 | 11.11° C | 85% | 1010.7 hPa | 1.52 mm | 0.89 m/s, 341° | - | - |
| 1777995177 | 11.11° C | 86% | 1010.7 hPa | 1.52 mm | 0.45 m/s, 5° | - | - |
| 1777994876 | 11.67° C | 84% | 1010.7 hPa | 1.27 mm | 0.45 m/s, 315° | - | - |
| 1777994577 | 11.67° C | 84% | 1010.5 hPa | 1.27 mm | 0.89 m/s, 340° | - | - |
| 1777994277 | 11.67° C | 82% | 1010.5 hPa | 1.27 mm | 0.45 m/s, 7° | - | - |
| 1777993977 | 12.22° C | 81% | 1010.6 hPa | 1.02 mm | 0.89 m/s, 22° | - | - |
| 1777993677 | 12.78° C | 79% | 1010.6 hPa | 1.02 mm | 1.79 m/s, 344° | - | - |
| 1777993377 | 13.33° C | 79% | 1010.4 hPa | 0.76 mm | 1.34 m/s, 15° | - | - |
| 1777993077 | 14.44° C | 90% | 1010.3 hPa | 0.76 mm | 1.34 m/s, 18° | - | - |
| 1777992777 | 14.44° C | 89% | 1010.1 hPa | 0.51 mm | 0.89 m/s, 358° | - | - |
| 1777992477 | 15° C | 88% | 1010.1 hPa | 0 mm | 0.45 m/s, 338° | - | - |
| 1777992177 | 15° C | 87% | 1010 hPa | 0 mm | 0.45 m/s, 329° | - | - |
| 1777991877 | 15° C | 88% | 1009.8 hPa | 0 mm | 1.34 m/s, 336° | - | - |
| 1777991577 | 15° C | 88% | 1009.6 hPa | 0 mm | 0.89 m/s, 279° | - | - |
| 1777991277 | 15° C | 88% | 1009.6 hPa | 0 mm | 0.89 m/s, 268° | - | - |
| 1777990977 | 15° C | 88% | 1009.4 hPa | 0 mm | 1.34 m/s, 279° | - | - |
| 1777990677 | 15° C | 88% | 1009.3 hPa | 0 mm | 1.34 m/s, 313° | - | - |
| 1777990377 | 15° C | 89% | 1009.3 hPa | 0 mm | 1.34 m/s, 292° | - | - |
* Rain latest hour (hover to see other rain measurements)
** Current wind speed in m/s (hover to see current wind gust speed)